Time;durP1;ratioP1;P1;durP2;ratioP2;P2;SDS_P1;SDS_P2;PMS_P1;PMS_P2;Temp;Humidity;BMP_temperature;BMP_pressure;BME280_temperature;BME280_humidity;BME280_pressure;Samples;Min_cycle;Max_cycle;Signal;HPM_P1;HPM_P2
2023/06/27 00:02:02;;;;;;;10.30;6.53;;;16.80;65.90;;;;;;4976833;28;20198;-62
2023/06/27 00:04:29;;;;;;;6.18;2.03;;;16.70;68.00;;;;;;5006092;28;20627;-62
2023/06/27 00:06:56;;;;;;;6.13;4.23;;;16.70;68.60;;;;;;5006410;28;20728;-62
2023/06/27 00:09:23;;;;;;;1.77;1.60;;;16.60;67.70;;;;;;5012525;28;20197;-62
2023/06/27 00:11:51;;;;;;;3.20;2.08;;;16.60;69.30;;;;;;5015103;28;20289;-62
2023/06/27 00:14:19;;;;;;;2.60;2.10;;;16.70;69.40;;;;;;5009968;28;20205;-62
2023/06/27 00:16:46;;;;;;;2.85;1.65;;;16.70;69.70;;;;;;5012773;28;20669;-61
2023/06/27 00:19:13;;;;;;;3.37;1.60;;;16.60;70.00;;;;;;5008588;28;20193;-62
2023/06/27 00:21:40;;;;;;;4.93;1.50;;;16.50;70.40;;;;;;4996680;28;20822;-61
2023/06/27 00:24:07;;;;;;;3.90;2.07;;;16.30;70.80;;;;;;5009221;28;20208;-62
2023/06/27 00:26:35;;;;;;;2.03;1.67;;;16.30;71.90;;;;;;5008617;28;20204;-62
2023/06/27 00:29:02;;;;;;;2.50;1.87;;;16.10;71.70;;;;;;5013327;28;20201;-62
2023/06/27 00:31:30;;;;;;;4.87;3.47;;;16.00;72.80;;;;;;5019421;28;20207;-61
2023/06/27 00:33:58;;;;;;;6.13;1.90;;;15.80;73.80;;;;;;5012625;28;20212;-61
2023/06/27 00:36:24;;;;;;;1.80;1.50;;;15.60;74.10;;;;;;5008375;28;20220;-62
2023/06/27 00:38:51;;;;;;;4.53;1.50;;;15.50;75.40;;;;;;5010843;28;20224;-62
2023/06/27 00:41:18;;;;;;;2.17;1.50;;;15.50;78.30;;;;;;5006246;28;20197;-62
2023/06/27 00:43:46;;;;;;;2.20;1.63;;;15.40;77.90;;;;;;5013275;28;20201;-63
2023/06/27 00:46:24;;;;;;;2.83;1.80;;;15.40;78.00;;;;;;5012668;28;20726;-62
2023/06/27 00:48:53;;;;;;;3.07;1.50;;;15.50;80.70;;;;;;5009276;28;20230;-62
2023/06/27 00:51:21;;;;;;;4.43;1.63;;;15.50;80.50;;;;;;5007292;28;20192;-62
2023/06/27 00:53:50;;;;;;;2.33;1.30;;;15.40;80.40;;;;;;5011331;28;20597;-62
2023/06/27 00:56:16;;;;;;;6.63;1.40;;;15.50;81.10;;;;;;5006794;28;20223;-62
2023/06/27 00:58:43;;;;;;;1.63;1.30;;;15.40;81.20;;;;;;5013613;28;20259;-62
2023/06/27 01:01:10;;;;;;;2.90;1.40;;;15.60;80.90;;;;;;5009052;28;20731;-61
2023/06/27 01:03:37;;;;;;;2.40;1.50;;;15.40;82.40;;;;;;5005472;28;20236;-62
2023/06/27 01:06:39;;;;;;;1.70;1.23;;;15.20;82.10;;;;;;5006324;28;20692;-62
2023/06/27 01:09:14;;;;;;;1.60;1.40;;;15.20;84.90;;;;;;4994300;28;20212;-60
2023/06/27 01:12:18;;;;;;;3.23;1.50;;;15.40;85.70;;;;;;5012677;28;20188;-60
2023/06/27 01:14:47;;;;;;;1.40;1.30;;;15.40;85.10;;;;;;5002954;28;20731;-60
2023/06/27 01:17:16;;;;;;;1.90;1.63;;;15.20;86.00;;;;;;5013972;28;20204;-60
2023/06/27 01:19:45;;;;;;;3.50;1.40;;;15.10;88.00;;;;;;5022217;28;20677;-61
2023/06/27 01:22:17;;;;;;;2.40;1.70;;;14.90;86.50;;;;;;5018765;28;20197;-61
2023/06/27 01:24:44;;;;;;;5.53;2.20;;;15.00;88.20;;;;;;5018788;28;20270;-62
2023/06/27 01:27:14;;;;;;;2.43;1.60;;;15.20;88.20;;;;;;5017120;28;20201;-61
2023/06/27 01:29:41;;;;;;;2.37;1.60;;;15.30;88.20;;;;;;5019504;28;20292;-61
2023/06/27 01:32:19;;;;;;;2.57;2.00;;;15.40;87.80;;;;;;5009429;28;20665;-62
2023/06/27 01:35:00;;;;;;;2.43;1.80;;;15.40;89.10;;;;;;4991308;28;20200;-62
2023/06/27 01:37:36;;;;;;;3.87;1.97;;;15.30;90.30;;;;;;5011044;28;20201;-62
2023/06/27 01:40:17;;;;;;;5.90;1.90;;;15.10;89.50;;;;;;5010423;28;20654;-61
2023/06/27 01:42:49;;;;;;;1.83;1.70;;;14.80;90.80;;;;;;5013610;28;20199;-61
2023/06/27 01:45:18;;;;;;;3.10;1.77;;;14.70;91.40;;;;;;5022387;28;20672;-61
2023/06/27 01:47:45;;;;;;;3.33;1.73;;;14.90;91.10;;;;;;5016127;28;20760;-69
2023/06/27 01:50:12;;;;;;;3.00;2.03;;;15.10;91.30;;;;;;5011108;28;20197;-69
2023/06/27 01:52:40;;;;;;;3.07;2.37;;;15.30;91.40;;;;;;5014696;28;20600;-69
2023/06/27 01:55:09;;;;;;;2.37;1.80;;;15.40;91.60;;;;;;5010884;28;20208;-69
2023/06/27 01:57:36;;;;;;;4.97;1.70;;;15.50;91.20;;;;;;5013995;28;20196;-69
2023/06/27 02:00:05;;;;;;;2.93;2.10;;;15.60;91.40;;;;;;5014902;28;20592;-69
2023/06/27 02:02:41;;;;;;;2.77;1.90;;;15.60;91.30;;;;;;5008896;28;22615;-69
2023/06/27 02:05:09;;;;;;;4.80;2.27;;;15.30;91.10;;;;;;5017206;28;20229;-69
2023/06/27 02:07:36;;;;;;;3.07;2.10;;;15.20;91.70;;;;;;4999609;28;20193;-69
2023/06/27 02:10:03;;;;;;;2.90;1.80;;;15.20;92.30;;;;;;5013411;28;20211;-69
2023/06/27 02:12:30;;;;;;;2.20;1.90;;;14.90;93.00;;;;;;5015684;28;20189;-69
2023/06/27 02:14:57;;;;;;;2.60;1.80;;;14.90;93.10;;;;;;5013337;28;20208;-69
2023/06/27 02:17:24;;;;;;;2.93;2.50;;;14.70;94.00;;;;;;5031956;28;20564;-69
2023/06/27 02:19:51;;;;;;;2.80;2.10;;;14.40;95.80;;;;;;5012329;28;20224;-68
2023/06/27 02:22:18;;;;;;;1.80;1.60;;;14.40;95.60;;;;;;5015187;28;20200;-69
2023/06/27 02:24:44;;;;;;;3.97;2.20;;;14.60;95.30;;;;;;4997166;28;20614;-68
2023/06/27 02:27:13;;;;;;;3.23;2.00;;;14.50;95.90;;;;;;5008661;28;20201;-68
2023/06/27 02:29:39;;;;;;;2.83;2.20;;;14.50;96.60;;;;;;5012428;28;20690;-68
2023/06/27 02:32:07;;;;;;;3.50;2.30;;;14.40;96.30;;;;;;5017095;28;20185;-68
2023/06/27 02:34:35;;;;;;;4.43;1.73;;;14.50;96.60;;;;;;5017045;28;20707;-68
2023/06/27 02:37:02;;;;;;;6.37;2.20;;;14.40;98.20;;;;;;5007497;28;20208;-71
2023/06/27 02:39:29;;;;;;;2.63;1.93;;;14.50;97.70;;;;;;5013100;28;20244;-71
2023/06/27 02:41:56;;;;;;;3.50;2.00;;;14.50;98.50;;;;;;5002839;28;20858;-67
2023/06/27 02:44:23;;;;;;;4.73;2.20;;;14.60;98.20;;;;;;5004623;28;20220;-67
2023/06/27 02:46:51;;;;;;;3.97;2.20;;;14.70;97.60;;;;;;5022495;28;20743;-67
2023/06/27 02:49:18;;;;;;;3.10;2.10;;;14.90;97.70;;;;;;5006768;28;20782;-67
2023/06/27 02:51:45;;;;;;;2.73;2.30;;;14.70;97.90;;;;;;5019308;28;20180;-67
2023/06/27 02:54:15;;;;;;;5.20;2.20;;;14.70;97.20;;;;;;4996956;28;20194;-67
2023/06/27 02:56:42;;;;;;;3.13;2.50;;;14.60;97.90;;;;;;5003660;28;20220;-67
2023/06/27 02:59:09;;;;;;;3.10;2.27;;;14.60;98.60;;;;;;5015276;28;20192;-68
2023/06/27 03:01:36;;;;;;;4.57;2.10;;;14.60;98.40;;;;;;5001534;28;20192;-68
2023/06/27 03:04:03;;;;;;;3.87;2.33;;;14.70;98.30;;;;;;4997767;28;20233;-68
2023/06/27 03:06:44;;;;;;;6.17;2.63;;;14.70;98.70;;;;;;5005206;28;20186;-68
2023/06/27 03:09:11;;;;;;;7.60;2.37;;;14.90;98.20;;;;;;5016820;28;20220;-68
2023/06/27 03:11:38;;;;;;;3.77;2.10;;;15.00;98.50;;;;;;5015530;28;20192;-68
2023/06/27 03:14:06;;;;;;;3.57;2.00;;;15.00;98.50;;;;;;4990618;28;20279;-68
2023/06/27 03:16:33;;;;;;;6.77;2.50;;;14.90;98.50;;;;;;5012442;28;20212;-69
2023/06/27 03:19:00;;;;;;;5.07;2.20;;;15.00;98.10;;;;;;5014917;28;20204;-69
2023/06/27 03:21:27;;;;;;;4.70;2.40;;;15.10;98.70;;;;;;5011749;28;20582;-69
2023/06/27 03:23:54;;;;;;;4.33;2.00;;;15.20;98.10;;;;;;5011360;28;20685;-70
2023/06/27 03:26:27;;;;;;;2.90;2.40;;;15.40;98.20;;;;;;5007393;28;20483;-70
2023/06/27 03:28:55;;;;;;;6.23;2.30;;;15.40;97.90;;;;;;5001942;28;20188;-72
2023/06/27 03:31:23;;;;;;;5.23;2.77;;;15.60;97.60;;;;;;5005398;28;20198;-71
2023/06/27 03:33:54;;;;;;;5.70;3.50;;;15.80;97.50;;;;;;4992765;28;20672;-71
2023/06/27 03:36:21;;;;;;;4.77;3.87;;;16.10;97.40;;;;;;5003199;28;20194;-71
2023/06/27 03:38:50;;;;;;;7.03;3.60;;;16.10;97.20;;;;;;5007715;28;20680;-71
2023/06/27 03:41:18;;;;;;;7.53;4.83;;;16.00;98.00;;;;;;5010207;28;20189;-71
2023/06/27 03:43:46;;;;;;;12.37;5.10;;;15.90;97.20;;;;;;5021169;28;20614;-71
2023/06/27 03:46:14;;;;;;;6.50;3.40;;;15.90;97.40;;;;;;5013055;28;20734;-70
2023/06/27 03:48:41;;;;;;;11.53;4.80;;;15.90;98.10;;;;;;5006004;28;20240;-70
2023/06/27 03:51:08;;;;;;;11.43;5.37;;;16.10;97.40;;;;;;5012570;28;20269;-70
2023/06/27 03:53:35;;;;;;;6.50;4.63;;;16.30;97.40;;;;;;4996188;28;20236;-71
2023/06/27 03:56:03;;;;;;;6.33;3.63;;;16.60;98.10;;;;;;5010673;28;20673;-71
2023/06/27 03:58:32;;;;;;;7.40;3.75;;;17.00;97.00;;;;;;5014656;28;20235;-70
2023/06/27 04:00:59;;;;;;;4.40;2.42;;;17.40;96.20;;;;;;5014996;28;20203;-70
2023/06/27 04:03:26;;;;;;;3.47;2.40;;;17.60;94.50;;;;;;5019596;28;20278;-70
2023/06/27 04:05:53;;;;;;;6.60;2.40;;;17.60;95.00;;;;;;5015280;28;20218;-72
2023/06/27 04:08:20;;;;;;;3.58;1.77;;;18.00;94.90;;;;;;5009320;28;20223;-71
2023/06/27 04:10:47;;;;;;;5.43;2.42;;;18.10;94.10;;;;;;5015320;28;20209;-71
2023/06/27 04:13:14;;;;;;;3.78;2.03;;;17.70;93.20;;;;;;5015515;28;20300;-71
2023/06/27 04:15:41;;;;;;;4.15;1.77;;;17.50;93.60;;;;;;5008259;28;20201;-70
2023/06/27 04:18:12;;;;;;;5.18;2.58;;;17.30;95.10;;;;;;5018307;28;20231;-70
2023/06/27 04:20:39;;;;;;;4.20;1.80;;;17.50;94.40;;;;;;5017856;28;20196;-71
2023/06/27 04:23:06;;;;;;;2.67;1.73;;;17.60;94.40;;;;;;5011573;28;20207;-61
2023/06/27 04:25:33;;;;;;;3.15;1.90;;;17.50;94.00;;;;;;5011075;28;20208;-60
2023/06/27 04:28:02;;;;;;;3.08;1.80;;;17.80;93.60;;;;;;5019996;28;20680;-61
2023/06/27 04:30:29;;;;;;;5.25;2.15;;;17.70;94.00;;;;;;5014165;28;20189;-61
2023/06/27 04:32:56;;;;;;;3.08;1.73;;;18.00;93.60;;;;;;5010437;28;20197;-61
2023/06/27 04:35:23;;;;;;;4.80;2.25;;;18.20;94.60;;;;;;5023098;28;20614;-62
2023/06/27 04:37:51;;;;;;;2.90;1.83;;;19.00;94.10;;;;;;5012356;28;20592;-61
2023/06/27 04:40:18;;;;;;;4.18;2.00;;;19.30;93.00;;;;;;5007751;28;20279;-64
2023/06/27 04:42:47;;;;;;;2.63;1.67;;;19.80;93.10;;;;;;5008159;28;20239;-67
2023/06/27 04:45:14;;;;;;;3.30;1.92;;;19.90;92.40;;;;;;5014841;28;20209;-71
2023/06/27 04:47:42;;;;;;;4.35;2.20;;;19.90;92.10;;;;;;5013285;28;20268;-68
2023/06/27 04:50:11;;;;;;;6.32;1.65;;;19.60;90.80;;;;;;5011187;28;20200;-72
2023/06/27 04:52:37;;;;;;;2.10;1.73;;;19.30;91.50;;;;;;5015985;28;20831;-73
2023/06/27 04:55:05;;;;;;;2.83;1.95;;;19.20;91.70;;;;;;5012614;28;20284;-72
2023/06/27 04:57:32;;;;;;;2.63;1.80;;;19.20;91.70;;;;;;5013756;28;20193;-72
2023/06/27 04:59:59;;;;;;;3.67;2.00;;;19.30;92.00;;;;;;5010414;28;20228;-71
2023/06/27 05:02:26;;;;;;;3.92;1.83;;;19.60;91.70;;;;;;5013828;28;20225;-71
2023/06/27 05:04:52;;;;;;;3.92;2.03;;;20.30;92.80;;;;;;5009072;28;20241;-72
2023/06/27 05:07:20;;;;;;;6.38;1.90;;;21.10;90.30;;;;;;5014871;28;20200;-72
2023/06/27 05:09:47;;;;;;;4.47;1.70;;;20.60;90.30;;;;;;5001661;28;20668;-72
2023/06/27 05:12:14;;;;;;;4.88;2.30;;;20.80;90.70;;;;;;5010242;28;20192;-72
2023/06/27 05:14:41;;;;;;;3.33;1.77;;;21.10;90.00;;;;;;5012845;28;20193;-72
2023/06/27 05:17:08;;;;;;;5.22;2.20;;;20.70;89.80;;;;;;5010790;28;20697;-72
2023/06/27 05:19:35;;;;;;;2.88;1.70;;;20.90;89.70;;;;;;5015376;28;20516;-72
2023/06/27 05:22:02;;;;;;;5.03;2.28;;;20.80;90.40;;;;;;5009557;28;20228;-73
2023/06/27 05:24:29;;;;;;;4.47;2.20;;;21.10;90.20;;;;;;5008438;28;20192;-71
2023/06/27 05:26:56;;;;;;;2.15;1.60;;;20.90;88.00;;;;;;5014044;28;20596;-72
2023/06/27 05:29:23;;;;;;;6.35;2.40;;;21.30;89.20;;;;;;5007320;28;20267;-72
2023/06/27 05:31:53;;;;;;;3.20;1.77;;;22.00;89.80;;;;;;5006951;28;20276;-71
2023/06/27 05:34:20;;;;;;;5.85;2.22;;;22.10;86.40;;;;;;5006744;28;20189;-70
2023/06/27 05:36:47;;;;;;;3.90;1.90;;;21.30;87.20;;;;;;5007406;28;20297;-72
2023/06/27 05:39:14;;;;;;;3.38;2.00;;;21.00;87.00;;;;;;4999668;28;20213;-71
2023/06/27 05:41:41;;;;;;;3.67;2.00;;;20.40;86.40;;;;;;5003108;28;20606;-72
2023/06/27 05:44:07;;;;;;;3.35;2.05;;;20.60;90.80;;;;;;5012162;28;20197;-72
2023/06/27 05:46:38;;;;;;;2.03;1.60;;;21.10;90.50;;;;;;5002540;28;20674;-72
2023/06/27 05:49:07;;;;;;;4.00;2.15;;;21.90;90.80;;;;;;5004366;28;20252;-72
2023/06/27 05:51:35;;;;;;;3.55;1.90;;;22.80;90.10;;;;;;5006561;28;20562;-72
2023/06/27 05:54:01;;;;;;;8.85;2.25;;;24.10;90.60;;;;;;5013548;28;20228;-72
2023/06/27 05:56:28;;;;;;;2.38;1.60;;;25.90;87.40;;;;;;4999529;28;20426;-72
2023/06/27 05:58:55;;;;;;;2.38;1.80;;;26.20;82.50;;;;;;5001497;28;20189;-72
2023/06/27 06:01:22;;;;;;;5.15;1.95;;;27.10;83.90;;;;;;5003805;28;20224;-72
2023/06/27 06:03:49;;;;;;;4.35;2.00;;;27.70;79.70;;;;;;5002875;28;20233;-72
2023/06/27 06:06:16;;;;;;;4.22;2.10;;;28.30;78.00;;;;;;5002949;28;20221;-72
2023/06/27 06:08:43;;;;;;;4.68;2.50;;;28.70;76.70;;;;;;5002882;28;20197;-72
2023/06/27 06:11:10;;;;;;;4.45;2.00;;;28.60;71.20;;;;;;5005297;28;20484;-62
2023/06/27 06:13:38;;;;;;;3.20;2.00;;;27.20;71.70;;;;;;5002687;28;20761;-62
2023/06/27 06:16:05;;;;;;;6.03;2.25;;;27.20;74.90;;;;;;5003559;28;20193;-62
2023/06/27 06:18:32;;;;;;;8.40;2.45;;;28.30;72.20;;;;;;5004004;28;20193;-63
2023/06/27 06:20:59;;;;;;;4.13;2.25;;;28.90;70.70;;;;;;5001315;28;20566;-63
2023/06/27 06:23:26;;;;;;;4.70;2.78;;;28.70;69.30;;;;;;4986146;28;20747;-63
2023/06/27 06:25:53;;;;;;;9.60;2.67;;;27.70;69.40;;;;;;5003149;28;20283;-62
2023/06/27 06:28:20;;;;;;;3.72;2.20;;;28.20;93.20;;;;;;5003004;28;20201;-71
2023/06/27 06:30:47;;;;;;;5.38;2.17;;;29.30;68.70;;;;;;5003855;28;20356;-72
2023/06/27 06:33:14;;;;;;;4.75;2.45;;;30.40;68.30;;;;;;5001092;28;20196;-72
2023/06/27 06:35:41;;;;;;;5.65;2.40;;;31.30;63.50;;;;;;5002707;28;20708;-72
2023/06/27 06:38:11;;;;;;;8.00;2.38;;;31.60;61.80;;;;;;5002339;28;20251;-67
2023/06/27 06:40:45;;;;;;;5.53;2.30;;;28.60;59.00;;;;;;5002841;28;20255;-63
2023/06/27 06:43:12;;;;;;;8.05;2.35;;;29.30;65.10;;;;;;4985583;28;20680;-63
2023/06/27 06:45:39;;;;;;;10.32;2.50;;;30.00;61.70;;;;;;5001738;28;20227;-63
2023/06/27 06:48:06;;;;;;;4.65;2.00;;;28.60;56.90;;;;;;5003072;28;20653;-63
2023/06/27 06:50:34;;;;;;;4.10;2.22;;;30.10;64.00;;;;;;4999933;28;20530;-64
2023/06/27 06:53:00;;;;;;;6.05;2.00;;;32.00;62.00;;;;;;5003037;28;20224;-64
2023/06/27 06:55:27;;;;;;;3.00;1.65;;;31.60;54.00;;;;;;4998618;28;20815;-67
2023/06/27 06:57:54;;;;;;;8.35;2.17;;;31.00;54.30;;;;;;5002895;28;20206;-63
2023/06/27 07:00:21;;;;;;;9.00;2.25;;;31.50;56.80;;;;;;5003775;28;20235;-72
2023/06/27 07:02:48;;;;;;;6.38;2.15;;;32.50;53.20;;;;;;5002192;28;20569;-72
2023/06/27 07:05:15;;;;;;;4.80;1.90;;;30.70;53.60;;;;;;5003274;28;20551;-72
2023/06/27 07:07:42;;;;;;;6.13;2.30;;;32.50;54.60;;;;;;5003892;28;20834;-72
2023/06/27 07:10:11;;;;;;;5.32;1.88;;;31.80;51.20;;;;;;5002756;28;20189;-64
2023/06/27 07:12:49;;;;;;;4.25;2.00;;;32.10;52.00;;;;;;5001052;28;20205;-64
2023/06/27 07:15:17;;;;;;;6.45;2.15;;;31.50;50.80;;;;;;5000553;28;20193;-64
2023/06/27 07:17:44;;;;;;;7.60;2.08;;;29.60;48.60;;;;;;4998702;28;20200;-64
2023/06/27 07:20:12;;;;;;;6.13;1.90;;;30.50;50.30;;;;;;5002538;28;20203;-63
2023/06/27 07:22:39;;;;;;;10.15;5.70;;;30.30;50.90;;;;;;5002635;28;20683;-64
2023/06/27 07:25:06;;;;;;;9.50;5.53;;;31.30;51.00;;;;;;4985989;28;20259;-64
2023/06/27 07:27:33;;;;;;;5.15;2.53;;;31.00;49.70;;;;;;5001782;28;20247;-64
2023/06/27 07:30:00;;;;;;;14.70;5.47;;;29.60;46.70;;;;;;5005095;28;20235;-64
2023/06/27 07:32:27;;;;;;;8.27;2.72;;;29.20;48.20;;;;;;5000574;28;20192;-63
2023/06/27 07:34:55;;;;;;;10.98;5.72;;;28.40;46.80;;;;;;4998254;28;20193;-64
2023/06/27 07:37:21;;;;;;;6.63;4.38;;;29.00;50.70;;;;;;5004230;28;20201;-62
2023/06/27 07:39:48;;;;;;;8.40;4.10;;;29.00;49.80;;;;;;4999149;28;20215;-72
2023/06/27 07:42:17;;;;;;;7.50;3.10;;;28.80;49.20;;;;;;5003852;28;20209;-72
2023/06/27 07:44:44;;;;;;;5.88;2.08;;;27.90;50.50;;;;;;4999915;28;20708;-72
2023/06/27 07:47:11;;;;;;;4.40;2.28;;;27.20;50.10;;;;;;4997240;28;20299;-72
2023/06/27 07:49:38;;;;;;;6.40;2.42;;;27.50;53.10;;;;;;5000484;28;20669;-72
2023/06/27 07:52:07;;;;;;;8.90;4.93;;;27.90;49.90;;;;;;5006334;28;20279;-72
2023/06/27 07:54:35;;;;;;;9.15;4.93;;;27.60;51.50;;;;;;5006470;28;20259;-72
2023/06/27 07:57:02;;;;;;;7.50;2.60;;;29.20;51.90;;;;;;5005115;28;20243;-72
2023/06/27 07:59:29;;;;;;;8.45;2.63;;;27.90;48.30;;;;;;4999893;28;20201;-72
2023/06/27 08:01:56;;;;;;;7.35;2.92;;;27.30;49.80;;;;;;5005176;28;20189;-72
2023/06/27 08:04:23;;;;;;;5.13;2.80;;;27.10;50.80;;;;;;5005816;28;20245;-63
2023/06/27 08:06:51;;;;;;;6.63;2.42;;;29.90;53.10;;;;;;4997953;28;20220;-61
2023/06/27 08:09:18;;;;;;;5.55;2.55;;;29.90;48.40;;;;;;5005411;28;20271;-70
2023/06/27 08:11:45;;;;;;;4.53;2.28;;;29.40;49.20;;;;;;5003058;28;20588;-73
2023/06/27 08:14:12;;;;;;;10.13;5.88;;;29.50;50.40;;;;;;5003646;28;20608;-72
2023/06/27 08:16:39;;;;;;;8.55;4.57;;;28.70;50.40;;;;;;5005914;28;20201;-72
2023/06/27 08:19:06;;;;;;;11.23;2.97;;;28.90;50.50;;;;;;5004510;28;20212;-72
2023/06/27 08:21:33;;;;;;;9.07;2.83;;;30.40;49.50;;;;;;5008726;28;20571;-72
2023/06/27 08:24:00;;;;;;;6.03;2.88;;;28.20;48.30;;;;;;5005452;28;20201;-72
2023/06/27 08:26:27;;;;;;;5.80;2.55;;;29.30;50.00;;;;;;5004086;28;20565;-72
2023/06/27 08:28:54;;;;;;;5.88;2.40;;;31.10;50.30;;;;;;5004886;28;20196;-71
2023/06/27 08:31:22;;;;;;;6.85;3.15;;;32.40;44.90;;;;;;5002378;28;20258;-72
2023/06/27 08:33:49;;;;;;;12.18;5.43;;;31.20;64.80;;;;;;5004630;28;20668;-72
2023/06/27 08:36:16;;;;;;;8.15;4.50;;;31.30;49.00;;;;;;5002739;28;20780;-71
2023/06/27 08:38:43;;;;;;;8.38;3.72;;;32.70;47.90;;;;;;4999819;28;20725;-72
2023/06/27 08:41:11;;;;;;;7.78;3.22;;;31.50;42.80;;;;;;5007689;28;20250;-72
2023/06/27 08:43:39;;;;;;;11.35;3.67;;;31.90;44.90;;;;;;5003568;28;20243;-71
2023/06/27 08:46:08;;;;;;;5.57;3.10;;;32.10;43.40;;;;;;4997387;28;20731;-72
2023/06/27 08:48:39;;;;;;;9.95;4.32;;;32.60;43.50;;;;;;5001673;28;20677;-72
2023/06/27 08:51:08;;;;;;;4.85;3.35;;;32.70;41.80;;;;;;5005086;28;20193;-70
2023/06/27 08:53:37;;;;;;;7.90;3.97;;;32.00;39.80;;;;;;5003572;28;20916;-61
2023/06/27 08:56:10;;;;;;;10.90;3.70;;;30.70;41.50;;;;;;5005057;28;20239;-61
2023/06/27 08:58:59;;;;;;;9.77;2.85;;;30.20;43.50;;;;;;5004065;28;20193;-63
2023/06/27 09:01:29;;;;;;;6.97;2.17;;;30.60;40.80;;;;;;5003402;28;20205;-61
2023/06/27 09:03:56;;;;;;;8.40;3.13;;;29.60;40.50;;;;;;5004102;28;20693;-62
2023/06/27 09:06:23;;;;;;;6.95;2.05;;;28.50;42.60;;;;;;5004058;28;20697;-62
2023/06/27 09:08:50;;;;;;;3.88;2.30;;;28.30;41.30;;;;;;5002977;28;20278;-62
2023/06/27 09:11:19;;;;;;;5.13;2.33;;;28.00;39.70;;;;;;5002972;28;20227;-62
2023/06/27 09:13:45;;;;;;;5.15;3.15;;;27.40;41.80;;;;;;5006443;28;20271;-62
2023/06/27 09:16:13;;;;;;;7.22;2.67;;;27.30;41.20;;;;;;5005809;28;20677;-62
2023/06/27 09:18:41;;;;;;;11.85;5.47;;;26.20;42.20;;;;;;5002798;28;20700;-62
2023/06/27 09:21:08;;;;;;;10.40;3.90;;;27.00;44.10;;;;;;5004310;28;20201;-63
2023/06/27 09:23:36;;;;;;;3.83;2.35;;;28.30;43.50;;;;;;5006432;28;20644;-62
2023/06/27 09:26:13;;;;;;;7.00;4.53;;;29.50;43.50;;;;;;5002599;28;20802;-63
2023/06/27 09:28:47;;;;;;;8.82;2.75;;;29.70;41.00;;;;;;5000290;28;20652;-63
2023/06/27 09:31:17;;;;;;;5.60;2.45;;;29.00;39.30;;;;;;5001807;28;20191;-62
2023/06/27 09:33:45;;;;;;;4.75;2.15;;;28.70;62.60;;;;;;5001236;28;20192;-62
2023/06/27 09:36:30;;;;;;;3.92;1.90;;;29.80;41.10;;;;;;4999832;28;20206;-62
2023/06/27 09:39:12;;;;;;;6.45;2.25;;;30.00;38.60;;;;;;5001090;28;20221;-69
2023/06/27 09:41:46;;;;;;;4.90;1.92;;;29.10;38.30;;;;;;5005416;28;20556;-61
2023/06/27 09:44:15;;;;;;;5.82;1.73;;;29.00;39.70;;;;;;5003039;28;20208;-61
2023/06/27 09:46:47;;;;;;;3.03;1.75;;;28.90;39.40;;;;;;5005242;28;20336;-63
2023/06/27 09:49:16;;;;;;;6.10;2.67;;;29.50;38.40;;;;;;4987057;28;20250;-63
2023/06/27 09:51:50;;;;;;;5.35;2.95;;;28.90;38.30;;;;;;5003248;28;20209;-62
2023/06/27 09:54:20;;;;;;;4.43;2.10;;;27.60;38.00;;;;;;5004245;28;20584;-61
2023/06/27 09:56:52;;;;;;;3.47;2.10;;;26.50;39.20;;;;;;5004221;28;20189;-61
2023/06/27 09:59:27;;;;;;;4.28;2.15;;;25.90;40.20;;;;;;5005175;28;20208;-62
2023/06/27 10:01:55;;;;;;;6.43;1.88;;;25.90;41.40;;;;;;5002127;28;20584;-61
2023/06/27 10:04:24;;;;;;;5.60;1.80;;;26.40;42.30;;;;;;5004631;28;20660;-61
2023/06/27 10:06:54;;;;;;;5.55;1.73;;;27.70;41.20;;;;;;4996397;28;20340;-69
2023/06/27 10:09:22;;;;;;;4.90;1.83;;;28.90;40.20;;;;;;5003832;28;20189;-72
2023/06/27 10:11:49;;;;;;;5.20;1.70;;;29.60;38.00;;;;;;5016220;28;20212;-69
2023/06/27 10:14:17;;;;;;;4.22;1.80;;;29.00;39.20;;;;;;5002746;28;20193;-70
2023/06/27 10:16:45;;;;;;;3.53;1.60;;;28.70;39.20;;;;;;5000646;28;20201;-68
2023/06/27 10:19:13;;;;;;;3.17;1.38;;;28.60;39.50;;;;;;5004741;28;20769;-71
2023/06/27 10:21:41;;;;;;;4.07;1.75;;;29.40;37.40;;;;;;5004945;28;20680;-63
2023/06/27 10:24:09;;;;;;;4.95;1.77;;;30.10;37.60;;;;;;5001986;28;20661;-68
2023/06/27 10:26:36;;;;;;;4.22;1.70;;;29.50;36.60;;;;;;5004123;28;20213;-67
2023/06/27 10:29:16;;;;;;;3.45;1.38;;;30.10;36.40;;;;;;5000041;28;20209;-70
2023/06/27 10:31:47;;;;;;;7.65;1.83;;;30.20;36.00;;;;;;5001044;28;20668;-71
2023/06/27 10:34:20;;;;;;;5.50;1.60;;;31.20;35.00;;;;;;5002649;28;20201;-70
2023/06/27 10:37:01;;;;;;;5.72;1.88;;;30.70;33.80;;;;;;4999592;28;20555;-70
2023/06/27 10:39:29;;;;;;;5.78;1.88;;;31.10;34.60;;;;;;5001739;28;20215;-67
2023/06/27 10:42:19;;;;;;;2.97;1.80;;;31.90;30.80;;;;;;5003328;28;20201;-69
2023/06/27 10:45:05;;;;;;;7.47;2.20;;;29.70;30.40;;;;;;4998183;28;20633;-68
2023/06/27 10:47:41;;;;;;;2.65;1.80;;;29.40;33.50;;;;;;5001392;28;20209;-68
2023/06/27 10:50:15;;;;;;;4.82;2.75;;;29.00;33.30;;;;;;5003981;28;20197;-69
2023/06/27 10:53:00;;;;;;;5.05;2.25;;;29.10;34.20;;;;;;5004177;28;20191;-70
2023/06/27 10:55:29;;;;;;;4.53;1.75;;;28.30;33.60;;;;;;5003202;28;20675;-68
2023/06/27 10:58:03;;;;;;;5.50;2.10;;;29.40;33.80;;;;;;5001965;28;20263;-70
2023/06/27 11:00:32;;;;;;;3.50;1.90;;;30.90;31.00;;;;;;5002346;28;20215;-66
2023/06/27 11:03:03;;;;;;;3.40;1.65;;;32.10;29.70;;;;;;5002780;28;20196;-69
2023/06/27 11:05:49;;;;;;;5.07;1.98;;;32.40;28.50;;;;;;5002083;28;20197;-71
2023/06/27 11:08:18;;;;;;;4.70;1.58;;;32.10;28.90;;;;;;4999752;28;21061;-69
2023/06/27 11:11:08;;;;;;;2.85;1.25;;;31.70;28.60;;;;;;5001251;28;20201;-69
2023/06/27 11:13:38;;;;;;;3.58;1.50;;;30.30;48.20;;;;;;5002097;28;20539;-68
2023/06/27 11:16:06;;;;;;;4.35;1.80;;;29.20;29.30;;;;;;5002703;28;20620;-65
2023/06/27 11:18:33;;;;;;;4.28;1.70;;;29.30;30.50;;;;;;5003537;28;20196;-66
2023/06/27 11:21:02;;;;;;;3.45;1.60;;;29.30;29.90;;;;;;5004068;28;20200;-66
2023/06/27 11:23:30;;;;;;;2.83;1.40;;;29.90;28.60;;;;;;5001536;28;20204;-67
2023/06/27 11:25:57;;;;;;;3.88;1.40;;;29.50;41.60;;;;;;4997920;28;20291;-65
2023/06/27 11:28:24;;;;;;;3.72;1.17;;;30.70;29.10;;;;;;5002185;28;20244;-66
2023/06/27 11:30:59;;;;;;;4.22;1.60;;;31.80;26.70;;;;;;4997050;28;20201;-65
2023/06/27 11:33:27;;;;;;;2.95;1.60;;;31.30;27.80;;;;;;5003934;28;20289;-65
2023/06/27 11:36:00;;;;;;;4.32;1.60;;;30.80;27.80;;;;;;5000698;28;20216;-66
2023/06/27 11:38:28;;;;;;;1.40;1.20;;;31.30;26.70;;;;;;5002645;28;20274;-65
2023/06/27 11:40:55;;;;;;;5.43;1.45;;;31.60;27.10;;;;;;5001611;28;20275;-66
2023/06/27 11:43:22;;;;;;;3.05;1.15;;;31.60;26.60;;;;;;5002401;28;20271;-65
2023/06/27 11:45:52;;;;;;;4.30;1.42;;;31.20;25.50;;;;;;5002761;28;20216;-65
2023/06/27 11:48:19;;;;;;;2.95;1.17;;;30.90;26.20;;;;;;5002035;28;20304;-64
2023/06/27 11:50:57;;;;;;;4.82;1.40;;;30.70;26.60;;;;;;5002208;28;20203;-70
2023/06/27 11:53:26;;;;;;;3.33;1.33;;;30.30;27.00;;;;;;5000065;28;20211;-69
2023/06/27 11:55:55;;;;;;;2.03;1.48;;;29.70;27.10;;;;;;5001901;28;20228;-69
2023/06/27 11:58:46;;;;;;;1.92;1.25;;;29.40;26.80;;;;;;4997706;28;20201;-66
2023/06/27 12:01:15;;;;;;;2.28;1.30;;;29.10;27.80;;;;;;5003705;28;20216;-66
2023/06/27 12:03:50;;;;;;;2.60;1.27;;;29.00;27.70;;;;;;5001975;28;20724;-66
2023/06/27 12:06:28;;;;;;;7.45;1.40;;;29.80;27.30;;;;;;4999414;28;20196;-66
2023/06/27 12:08:56;;;;;;;3.13;1.38;;;30.30;46.50;;;;;;4997787;28;20209;-66
2023/06/27 12:11:34;;;;;;;3.30;1.42;;;30.80;25.70;;;;;;5003368;28;20197;-66
2023/06/27 12:14:05;;;;;;;5.55;1.80;;;29.80;26.20;;;;;;5001176;28;20196;-69
2023/06/27 12:16:33;;;;;;;8.30;5.45;;;28.90;27.00;;;;;;5001940;28;20659;-69
2023/06/27 12:19:07;;;;;;;3.92;2.60;;;28.70;27.10;;;;;;5003438;28;20267;-69
2023/06/27 12:21:34;;;;;;;3.75;2.33;;;28.40;27.70;;;;;;5001851;28;20659;-70
2023/06/27 12:24:02;;;;;;;8.13;2.00;;;28.10;28.60;;;;;;5002398;28;20607;-68
2023/06/27 12:26:30;;;;;;;5.07;1.60;;;28.10;28.30;;;;;;5002715;28;20476;-69
2023/06/27 12:29:04;;;;;;;4.07;1.80;;;28.10;28.00;;;;;;5015452;28;20770;-73
2023/06/27 12:31:33;;;;;;;2.47;1.40;;;28.60;27.50;;;;;;5000834;28;20197;-72
2023/06/27 12:34:00;;;;;;;5.15;1.80;;;29.10;27.90;;;;;;5001986;28;20197;-71
2023/06/27 12:36:28;;;;;;;2.47;1.50;;;28.90;26.70;;;;;;5016632;28;20208;-71
2023/06/27 12:38:55;;;;;;;1.40;1.17;;;28.70;26.80;;;;;;5006006;28;20212;-72
2023/06/27 12:41:23;;;;;;;2.20;1.08;;;27.50;26.30;;;;;;5003892;28;20201;-72
2023/06/27 12:43:50;;;;;;;1.60;1.10;;;27.00;27.90;;;;;;5004684;28;20462;-71
2023/06/27 12:46:17;;;;;;;2.10;1.35;;;27.70;27.30;;;;;;5006434;28;20216;-71
2023/06/27 12:48:45;;;;;;;4.03;1.70;;;28.20;28.00;;;;;;5005661;28;20328;-72
2023/06/27 12:51:13;;;;;;;3.75;1.27;;;28.10;27.20;;;;;;5005316;28;20716;-72
2023/06/27 12:53:43;;;;;;;4.03;1.40;;;26.90;27.20;;;;;;5003371;28;20639;-71
2023/06/27 12:56:11;;;;;;;1.60;1.20;;;27.70;28.60;;;;;;5005667;28;20279;-73